Time;durP1;ratioP1;P1;durP2;ratioP2;P2;SDS_P1;SDS_P2;PMS_P1;PMS_P2;Temp;Humidity;BMP_temperature;BMP_pressure;BME280_temperature;BME280_humidity;BME280_pressure;Samples;Min_cycle;Max_cycle;Signal;HPM_P1;HPM_P2
2020/12/23 00:00:26;;;;;;;10.40;8.23;;;11.10;99.90;;;;;;5058181;28;20452;-90
2020/12/23 00:02:52;;;;;;;13.60;8.90;;;11.20;99.90;;;;;;5058039;28;20467;-90
2020/12/23 00:05:19;;;;;;;12.10;8.63;;;11.20;99.90;;;;;;5055549;28;20901;-90
2020/12/23 00:07:48;;;;;;;16.87;9.80;;;11.20;99.90;;;;;;5057137;28;20486;-90
2020/12/23 00:10:14;;;;;;;13.90;9.50;;;11.20;99.90;;;;;;5056765;28;20483;-90
2020/12/23 00:12:40;;;;;;;11.90;8.73;;;11.20;99.90;;;;;;5056238;28;20519;-91
2020/12/23 00:15:08;;;;;;;15.33;10.10;;;11.20;99.90;;;;;;5056493;28;20486;-92
2020/12/23 00:17:35;;;;;;;16.97;11.83;;;11.20;99.90;;;;;;5053908;28;20463;-91
2020/12/23 00:20:02;;;;;;;16.07;12.10;;;11.20;99.90;;;;;;5053461;28;20479;-92
2020/12/23 00:22:31;;;;;;;15.73;11.20;;;11.20;99.90;;;;;;5055090;28;20542;-92
2020/12/23 00:24:58;;;;;;;19.60;12.53;;;11.20;99.90;;;;;;5057417;28;20524;-94
2020/12/23 00:27:25;;;;;;;21.17;13.57;;;11.10;99.90;;;;;;5055543;28;20519;-91
2020/12/23 00:29:51;;;;;;;14.70;11.37;;;11.10;99.90;;;;;;5056264;28;20522;-90
2020/12/23 00:32:18;;;;;;;14.87;12.10;;;11.20;99.90;;;;;;5055047;28;20562;-91
2020/12/23 00:34:45;;;;;;;15.13;11.97;;;11.20;99.90;;;;;;5058071;28;20547;-91
2020/12/23 00:37:11;;;;;;;19.27;14.13;;;11.20;99.90;;;;;;5055787;28;20484;-91
2020/12/23 00:39:39;;;;;;;19.73;13.97;;;11.30;99.90;;;;;;5056270;28;20480;-91
2020/12/23 00:42:06;;;;;;;22.23;14.33;;;11.30;99.90;;;;;;5056644;28;20486;-91
2020/12/23 00:44:33;;;;;;;19.33;15.10;;;11.40;99.90;;;;;;5055628;28;20483;-91
2020/12/23 00:46:59;;;;;;;21.57;15.27;;;11.40;99.90;;;;;;5055536;28;20484;-91
2020/12/23 00:49:26;;;;;;;22.87;13.93;;;11.40;99.90;;;;;;5055588;28;20510;-91
2020/12/23 00:51:52;;;;;;;18.37;14.70;;;11.50;99.90;;;;;;5055683;28;20463;-91
2020/12/23 00:54:19;;;;;;;21.63;14.43;;;11.50;99.90;;;;;;5054115;28;20519;-91
2020/12/23 00:56:45;;;;;;;28.90;15.97;;;11.50;99.90;;;;;;5053403;28;20893;-90
2020/12/23 00:59:13;;;;;;;19.40;14.87;;;11.60;99.90;;;;;;5058920;28;20526;-92
2020/12/23 01:01:39;;;;;;;20.13;15.00;;;11.50;99.90;;;;;;5041739;28;20487;-91
2020/12/23 01:04:06;;;;;;;17.07;13.00;;;11.60;99.90;;;;;;5042667;28;20509;-90
2020/12/23 01:06:32;;;;;;;18.43;12.90;;;11.60;99.90;;;;;;5058071;28;20452;-91
2020/12/23 01:09:01;;;;;;;28.70;15.33;;;11.60;99.90;;;;;;5056725;28;20551;-91
2020/12/23 01:11:28;;;;;;;21.43;13.47;;;11.70;99.90;;;;;;5054230;28;21066;-91
2020/12/23 01:13:54;;;;;;;18.17;14.00;;;11.70;99.90;;;;;;5055382;28;20555;-91
2020/12/23 01:16:22;;;;;;;20.93;14.80;;;11.70;99.90;;;;;;5054240;28;20557;-91
2020/12/23 01:18:49;;;;;;;27.60;15.00;;;11.80;99.90;;;;;;5052728;28;20479;-91
2020/12/23 01:21:15;;;;;;;24.27;15.60;;;11.70;99.90;;;;;;5053919;28;20491;-91
2020/12/23 01:23:43;;;;;;;25.70;16.70;;;11.80;99.90;;;;;;5053960;28;20996;-92
2020/12/23 01:26:09;;;;;;;21.63;14.80;;;11.80;99.90;;;;;;5053865;28;20538;-90
2020/12/23 01:28:36;;;;;;;26.10;16.80;;;11.80;99.90;;;;;;5054365;28;20543;-90
2020/12/23 01:31:04;;;;;;;21.53;16.43;;;11.90;99.90;;;;;;5053943;28;20896;-91
2020/12/23 01:33:31;;;;;;;30.13;18.27;;;11.90;99.90;;;;;;5055156;28;20448;-91
2020/12/23 01:35:58;;;;;;;25.20;17.40;;;11.90;99.90;;;;;;5053844;28;20940;-91
2020/12/23 01:38:24;;;;;;;24.53;14.03;;;11.80;99.90;;;;;;5057085;28;20472;-92
2020/12/23 01:40:56;;;;;;;23.00;13.90;;;11.90;99.90;;;;;;5054929;28;20505;-92
2020/12/23 01:43:22;;;;;;;23.33;14.03;;;11.80;99.90;;;;;;5056040;28;20455;-91
2020/12/23 01:45:48;;;;;;;19.40;14.60;;;11.90;99.90;;;;;;5055024;28;20483;-91
2020/12/23 01:48:17;;;;;;;25.10;15.23;;;11.90;99.90;;;;;;5057703;28;20974;-90
2020/12/23 01:50:46;;;;;;;19.87;13.00;;;12.00;99.90;;;;;;5061168;28;20519;-89
2020/12/23 01:53:12;;;;;;;18.33;12.70;;;11.90;99.90;;;;;;5059915;28;20566;-90
2020/12/23 01:55:39;;;;;;;17.50;11.50;;;12.00;99.90;;;;;;5061924;28;20479;-90
2020/12/23 01:58:07;;;;;;;19.30;12.00;;;12.00;99.90;;;;;;5061722;28;20559;-92
2020/12/23 02:00:33;;;;;;;17.77;12.53;;;12.00;99.90;;;;;;5064848;28;20527;-91
2020/12/23 02:03:05;;;;;;;19.10;12.17;;;12.00;99.90;;;;;;5067736;28;20483;-91
2020/12/23 02:05:31;;;;;;;20.57;11.27;;;12.10;99.90;;;;;;5064532;28;20440;-91
2020/12/23 02:07:59;;;;;;;17.50;11.93;;;12.10;99.90;;;;;;5061147;28;20919;-91
2020/12/23 02:10:25;;;;;;;17.77;11.33;;;12.10;99.90;;;;;;5060307;28;20916;-91
2020/12/23 02:12:52;;;;;;;18.57;12.00;;;12.10;99.90;;;;;;5060481;28;20554;-90
2020/12/23 02:15:19;;;;;;;14.63;11.33;;;12.10;99.90;;;;;;5060315;28;20519;-90
2020/12/23 02:17:47;;;;;;;16.97;10.83;;;12.10;99.90;;;;;;5061148;28;20443;-91
2020/12/23 02:20:14;;;;;;;15.00;10.30;;;12.10;99.90;;;;;;5063113;28;20482;-91
2020/12/23 02:22:42;;;;;;;14.57;10.23;;;12.10;99.90;;;;;;5046990;28;20514;-90
2020/12/23 02:25:09;;;;;;;14.47;11.40;;;12.20;99.90;;;;;;5040302;28;20436;-91
2020/12/23 02:27:37;;;;;;;17.77;12.70;;;12.10;99.90;;;;;;5041968;28;20524;-91
2020/12/23 02:30:08;;;;;;;23.97;13.40;;;12.10;99.90;;;;;;5043238;28;20579;-95
2020/12/23 02:32:35;;;;;;;16.63;11.40;;;12.10;99.90;;;;;;5041570;28;20483;-91
2020/12/23 02:35:06;;;;;;;17.57;11.87;;;12.20;99.90;;;;;;5041756;28;20548;-91
2020/12/23 02:37:32;;;;;;;27.70;14.40;;;12.10;99.90;;;;;;5041508;28;20537;-91
2020/12/23 02:39:59;;;;;;;18.07;13.30;;;12.10;99.90;;;;;;5043628;28;20837;-91
2020/12/23 02:42:26;;;;;;;17.03;13.20;;;12.20;99.90;;;;;;5041537;28;20476;-91
2020/12/23 02:44:56;;;;;;;17.40;12.40;;;12.20;99.90;;;;;;5062040;28;20463;-91
2020/12/23 02:47:22;;;;;;;35.30;17.70;;;12.20;99.90;;;;;;5062252;28;20968;-91
2020/12/23 02:49:49;;;;;;;20.50;13.43;;;12.00;99.90;;;;;;5061817;28;20504;-91
2020/12/23 02:52:15;;;;;;;20.37;13.03;;;12.00;99.90;;;;;;5059679;28;20999;-91
2020/12/23 02:54:42;;;;;;;21.80;14.70;;;12.10;99.90;;;;;;5042847;28;20545;-92
2020/12/23 02:57:09;;;;;;;28.60;15.07;;;12.10;99.90;;;;;;5039382;28;20480;-91
2020/12/23 02:59:36;;;;;;;24.90;15.00;;;12.10;99.90;;;;;;5033503;28;20559;-91
2020/12/23 03:02:04;;;;;;;22.73;14.53;;;12.10;99.90;;;;;;5037420;28;20449;-90
2020/12/23 03:04:30;;;;;;;19.17;13.27;;;12.10;99.90;;;;;;5038066;28;20932;-91
2020/12/23 03:06:56;;;;;;;24.03;13.50;;;12.10;99.90;;;;;;5037999;28;20587;-91
2020/12/23 03:09:23;;;;;;;18.57;13.70;;;12.10;99.90;;;;;;5041431;28;20449;-91
2020/12/23 03:11:49;;;;;;;16.53;11.90;;;12.10;99.90;;;;;;5037269;28;20520;-91
2020/12/23 03:14:17;;;;;;;19.10;13.97;;;12.20;99.90;;;;;;5029488;28;20536;-91
2020/12/23 03:16:43;;;;;;;17.23;12.10;;;12.20;99.90;;;;;;5036828;28;20477;-91
2020/12/23 03:19:09;;;;;;;19.67;12.60;;;12.20;99.90;;;;;;5037122;28;20460;-91
2020/12/23 03:21:36;;;;;;;21.80;12.77;;;12.10;99.90;;;;;;5037864;28;20461;-91
2020/12/23 03:24:03;;;;;;;20.40;13.30;;;12.10;99.90;;;;;;5037886;28;20528;-91
2020/12/23 03:26:29;;;;;;;16.47;11.50;;;12.10;99.90;;;;;;5037996;28;20507;-91
2020/12/23 03:28:56;;;;;;;15.70;11.23;;;12.10;99.90;;;;;;5013936;28;20474;-91
2020/12/23 03:31:24;;;;;;;17.90;11.77;;;12.20;99.90;;;;;;5024637;28;20545;-92
2020/12/23 03:33:50;;;;;;;19.23;12.53;;;12.20;99.90;;;;;;5029578;28;20484;-91
2020/12/23 03:36:17;;;;;;;16.53;13.00;;;12.20;99.90;;;;;;5036106;28;20477;-90
2020/12/23 03:38:43;;;;;;;17.40;11.27;;;12.30;99.90;;;;;;5016926;28;20438;-90
2020/12/23 03:41:09;;;;;;;18.10;12.17;;;12.30;99.90;;;;;;5022756;28;20480;-90
2020/12/23 03:43:36;;;;;;;15.70;11.47;;;12.30;99.90;;;;;;5021644;28;20539;-90
2020/12/23 03:46:03;;;;;;;17.63;12.60;;;12.30;99.90;;;;;;5036459;28;20536;-90
2020/12/23 03:48:31;;;;;;;21.47;12.13;;;12.30;99.90;;;;;;5040942;28;20946;-91
2020/12/23 03:50:57;;;;;;;18.37;12.70;;;12.20;99.90;;;;;;5039362;28;20453;-90
2020/12/23 03:53:24;;;;;;;21.57;13.40;;;12.20;99.90;;;;;;5043017;28;20567;-90
2020/12/23 03:55:50;;;;;;;17.50;11.73;;;12.20;99.90;;;;;;5039907;28;20491;-90
2020/12/23 03:58:17;;;;;;;18.30;13.27;;;12.20;99.90;;;;;;5040571;28;20448;-91
2020/12/23 04:00:45;;;;;;;18.40;13.33;;;12.30;99.90;;;;;;5057971;28;20915;-91
2020/12/23 04:03:15;;;;;;;18.87;13.90;;;12.30;99.90;;;;;;5060925;28;20472;-91
2020/12/23 04:05:42;;;;;;;21.80;14.43;;;12.30;99.90;;;;;;5059001;28;20526;-90
2020/12/23 04:08:08;;;;;;;17.40;13.50;;;12.30;99.90;;;;;;5055743;28;20454;-92
2020/12/23 04:10:35;;;;;;;20.40;13.40;;;12.30;99.90;;;;;;5059723;28;20524;-91
2020/12/23 04:13:01;;;;;;;22.43;14.10;;;12.30;99.90;;;;;;5058443;28;20455;-90
2020/12/23 04:15:28;;;;;;;22.20;14.77;;;12.30;99.90;;;;;;5058969;28;20754;-90
2020/12/23 04:17:55;;;;;;;114.87;23.63;;;12.30;99.90;;;;;;5062261;28;20455;-90
2020/12/23 04:20:22;;;;;;;24.70;15.00;;;12.30;99.90;;;;;;5061900;28;20537;-91
2020/12/23 04:22:53;;;;;;;20.03;15.27;;;12.30;99.90;;;;;;5060110;28;20452;-91
2020/12/23 04:25:19;;;;;;;21.37;16.60;;;12.20;99.90;;;;;;5059984;28;20480;-92
2020/12/23 04:27:46;;;;;;;21.50;15.63;;;12.20;99.90;;;;;;5050956;28;20487;-92
2020/12/23 04:30:13;;;;;;;23.07;15.43;;;12.20;99.90;;;;;;5044504;28;20587;-92
2020/12/23 04:32:40;;;;;;;24.90;17.73;;;12.10;99.90;;;;;;5059642;28;20490;-92
2020/12/23 04:35:06;;;;;;;21.83;15.77;;;12.00;99.90;;;;;;5059077;28;20519;-94
2020/12/23 04:37:34;;;;;;;24.67;17.37;;;12.00;99.90;;;;;;5056379;28;20484;-90
2020/12/23 04:40:02;;;;;;;22.33;16.93;;;12.10;99.90;;;;;;5057556;28;20506;-92
2020/12/23 04:42:33;;;;;;;23.57;16.83;;;11.90;99.90;;;;;;5058234;28;20509;-92
2020/12/23 04:45:00;;;;;;;24.47;17.30;;;12.00;99.90;;;;;;5056892;28;20763;-92
2020/12/23 04:47:30;;;;;;;20.73;15.87;;;12.00;99.90;;;;;;5058499;28;20535;-93
2020/12/23 04:49:57;;;;;;;20.70;16.00;;;12.00;99.90;;;;;;5055986;28;20471;-93
2020/12/23 04:52:30;;;;;;;23.50;17.37;;;12.00;99.90;;;;;;5045257;28;20475;-92
2020/12/23 04:54:59;;;;;;;23.37;16.40;;;12.00;99.90;;;;;;5055588;28;20480;-91
2020/12/23 04:57:28;;;;;;;22.83;16.50;;;12.00;99.90;;;;;;5045383;28;20496;-92
2020/12/23 04:59:55;;;;;;;22.17;16.57;;;11.90;99.90;;;;;;5054639;28;20459;-92
2020/12/23 05:02:21;;;;;;;18.07;16.13;;;12.00;99.90;;;;;;5055572;28;20452;-92
2020/12/23 05:04:48;;;;;;;21.63;16.40;;;12.00;99.90;;;;;;5056943;28;20788;-92
2020/12/23 05:07:19;;;;;;;27.27;19.10;;;12.00;99.90;;;;;;5064071;28;20908;-92
2020/12/23 05:09:48;;;;;;;20.90;15.30;;;11.90;99.90;;;;;;5067857;28;20484;-91
2020/12/23 05:12:15;;;;;;;21.07;16.13;;;12.00;99.90;;;;;;5069404;28;20491;-92
2020/12/23 05:14:43;;;;;;;18.80;15.07;;;12.00;99.90;;;;;;5067250;28;20455;-91
2020/12/23 05:17:11;;;;;;;21.43;15.87;;;12.00;99.90;;;;;;5064975;28;20476;-91
2020/12/23 05:19:39;;;;;;;19.20;15.00;;;12.00;99.90;;;;;;5066591;28;20460;-91
2020/12/23 05:22:06;;;;;;;18.87;15.30;;;12.00;99.90;;;;;;5065627;28;20551;-91
2020/12/23 05:24:34;;;;;;;19.37;15.67;;;12.00;99.90;;;;;;5066326;28;20459;-91
2020/12/23 05:27:05;;;;;;;19.33;14.30;;;12.00;99.90;;;;;;5064772;28;20534;-91
2020/12/23 05:29:32;;;;;;;22.60;16.50;;;12.00;99.90;;;;;;5067262;28;20694;-92
2020/12/23 05:32:01;;;;;;;17.77;14.23;;;12.00;99.90;;;;;;5065588;28;20455;-92
2020/12/23 05:34:27;;;;;;;17.40;14.10;;;12.00;99.90;;;;;;5059802;28;20619;-91
2020/12/23 05:36:54;;;;;;;20.40;14.57;;;12.00;99.90;;;;;;5054262;28;20518;-91
2020/12/23 05:39:20;;;;;;;42.73;27.33;;;12.00;99.90;;;;;;5053778;28;20848;-89
2020/12/23 05:41:47;;;;;;;19.50;15.03;;;12.00;99.90;;;;;;5053980;28;20535;-91
2020/12/23 05:44:17;;;;;;;19.40;15.57;;;11.90;99.90;;;;;;5053936;28;20526;-92
2020/12/23 05:46:46;;;;;;;17.88;13.52;;;12.00;99.90;;;;;;5052839;28;20482;-92
2020/12/23 05:49:15;;;;;;;20.10;14.97;;;11.90;99.90;;;;;;5052498;28;20193;-89
2020/12/23 05:51:43;;;;;;;13.13;11.20;;;11.90;99.90;;;;;;5053030;28;20936;-92
2020/12/23 05:54:11;;;;;;;19.23;13.80;;;11.90;99.90;;;;;;5053591;28;20802;-89
2020/12/23 05:56:38;;;;;;;14.53;10.00;;;11.80;99.90;;;;;;5052417;28;20484;-89
2020/12/23 05:59:05;;;;;;;12.70;9.33;;;11.90;99.90;;;;;;5053444;28;20547;-90
2020/12/23 06:01:35;;;;;;;10.77;9.13;;;12.00;99.90;;;;;;5050784;28;20468;-89
2020/12/23 06:04:06;;;;;;;14.10;10.00;;;12.00;99.90;;;;;;5053702;28;20454;-89
2020/12/23 06:06:35;;;;;;;11.93;8.70;;;12.00;99.90;;;;;;5052571;28;20516;-90
2020/12/23 06:09:04;;;;;;;13.43;10.40;;;11.90;99.90;;;;;;5053302;28;20452;-90
2020/12/23 06:11:35;;;;;;;10.53;7.60;;;12.00;99.90;;;;;;5053155;28;20452;-91
2020/12/23 06:14:23;;;;;;;14.50;8.97;;;11.90;99.90;;;;;;5053171;28;20454;-89
2020/12/23 06:16:51;;;;;;;10.57;7.70;;;12.00;99.90;;;;;;5054814;28;20525;-90
2020/12/23 06:19:26;;;;;;;9.23;7.27;;;11.90;99.90;;;;;;5054274;28;20535;-91
2020/12/23 06:21:56;;;;;;;11.40;7.37;;;11.90;99.90;;;;;;5053271;28;20448;-90
2020/12/23 06:24:22;;;;;;;9.87;7.27;;;11.90;99.90;;;;;;5053414;28;20484;-91
2020/12/23 06:26:51;;;;;;;10.03;6.80;;;12.00;99.90;;;;;;5053403;28;20535;-91
2020/12/23 06:29:22;;;;;;;11.10;6.90;;;12.00;99.90;;;;;;5053605;28;20550;-88
2020/12/23 06:31:51;;;;;;;7.23;5.70;;;11.90;99.90;;;;;;5053898;28;20462;-89
2020/12/23 06:34:19;;;;;;;8.73;6.37;;;11.90;99.90;;;;;;5054851;28;20527;-90
2020/12/23 06:36:47;;;;;;;6.90;5.30;;;11.90;99.90;;;;;;5056938;28;20566;-90
2020/12/23 06:39:39;;;;;;;10.00;7.03;;;11.90;99.90;;;;;;5057513;28;20833;-90
2020/12/23 06:42:26;;;;;;;8.83;5.87;;;11.90;99.90;;;;;;5057433;28;20523;-90
2020/12/23 06:45:04;;;;;;;7.00;6.10;;;11.90;99.90;;;;;;5057845;28;20460;-90
2020/12/23 06:47:32;;;;;;;8.43;7.40;;;11.90;99.90;;;;;;5057228;28;20473;-89
2020/12/23 06:50:01;;;;;;;6.60;5.37;;;11.90;99.90;;;;;;5060318;28;20511;-89
2020/12/23 06:52:38;;;;;;;7.17;5.77;;;11.90;99.90;;;;;;5061534;28;20486;-91
2020/12/23 06:55:06;;;;;;;8.33;6.40;;;11.90;99.90;;;;;;5061232;28;20466;-90
2020/12/23 06:57:55;;;;;;;7.37;6.13;;;11.90;99.90;;;;;;5060833;28;20510;-89
2020/12/23 07:00:40;;;;;;;7.70;6.03;;;11.90;99.90;;;;;;5062042;28;20994;-90
2020/12/23 07:03:11;;;;;;;7.80;6.17;;;11.90;99.90;;;;;;5047491;28;20539;-90
2020/12/23 07:05:40;;;;;;;9.63;7.03;;;11.90;99.90;;;;;;5061513;28;20484;-90
2020/12/23 07:08:08;;;;;;;9.70;6.30;;;11.90;99.90;;;;;;5061258;28;20456;-90
2020/12/23 07:10:37;;;;;;;9.67;7.23;;;11.90;99.90;;;;;;5061931;28;20476;-89
2020/12/23 07:13:06;;;;;;;7.50;5.60;;;11.80;99.90;;;;;;5061950;28;20452;-90
2020/12/23 07:15:34;;;;;;;8.80;6.80;;;11.90;99.90;;;;;;5060380;28;20524;-90
2020/12/23 07:18:03;;;;;;;7.33;5.53;;;11.90;99.90;;;;;;5059549;28;20449;-90
2020/12/23 07:20:32;;;;;;;7.40;5.83;;;11.90;99.90;;;;;;5056604;28;20644;-90
2020/12/23 07:23:04;;;;;;;5.43;4.83;;;11.80;99.90;;;;;;5059123;28;20464;-90
2020/12/23 07:25:34;;;;;;;9.30;6.40;;;11.90;99.90;;;;;;5057534;28;20432;-89
2020/12/23 07:28:06;;;;;;;6.97;5.37;;;11.90;99.90;;;;;;5056617;28;20910;-89
2020/12/23 07:30:38;;;;;;;6.90;5.97;;;11.90;99.90;;;;;;5056488;28;20848;-90
2020/12/23 07:33:08;;;;;;;7.70;5.10;;;12.00;99.90;;;;;;5057936;28;20535;-90
2020/12/23 07:35:35;;;;;;;6.93;5.43;;;12.00;99.90;;;;;;5056977;28;20489;-89
2020/12/23 07:38:03;;;;;;;6.13;5.50;;;12.00;99.90;;;;;;5056393;28;20802;-90
2020/12/23 07:40:31;;;;;;;7.33;6.17;;;12.00;99.90;;;;;;5054727;28;20463;-90
2020/12/23 07:42:58;;;;;;;7.80;5.07;;;12.00;99.90;;;;;;5055831;28;20542;-89
2020/12/23 07:45:27;;;;;;;7.70;4.23;;;12.00;99.90;;;;;;5053990;28;20448;-90
2020/12/23 07:47:55;;;;;;;5.50;3.90;;;12.00;99.90;;;;;;5053452;28;20448;-89
2020/12/23 07:50:23;;;;;;;4.10;2.73;;;12.10;99.90;;;;;;5055284;28;20754;-90
2020/12/23 07:52:49;;;;;;;6.60;3.30;;;12.10;99.90;;;;;;5055814;28;20455;-91
2020/12/23 07:55:17;;;;;;;4.00;3.33;;;12.00;99.90;;;;;;5056060;28;20468;-90
2020/12/23 07:57:44;;;;;;;5.87;3.90;;;12.00;99.90;;;;;;5057458;28;20570;-90
2020/12/23 08:00:12;;;;;;;6.87;3.87;;;12.10;99.90;;;;;;5055892;28;20547;-89
2020/12/23 08:02:40;;;;;;;9.00;3.97;;;12.10;99.90;;;;;;5056725;28;20475;-89
2020/12/23 08:05:08;;;;;;;5.27;4.40;;;12.00;99.90;;;;;;5058167;28;20487;-89
2020/12/23 08:07:38;;;;;;;5.00;4.20;;;12.00;99.90;;;;;;5056933;28;20448;-90
2020/12/23 08:10:13;;;;;;;8.20;5.17;;;12.10;99.90;;;;;;5058668;28;20440;-89
2020/12/23 08:12:40;;;;;;;7.00;3.63;;;12.10;99.90;;;;;;5046025;28;20457;-89
2020/12/23 08:15:14;;;;;;;8.50;4.77;;;12.10;99.90;;;;;;5056001;28;20547;-90
2020/12/23 08:17:42;;;;;;;4.90;4.40;;;12.00;99.90;;;;;;5058065;28;20511;-92
2020/12/23 08:20:10;;;;;;;6.13;3.23;;;12.00;99.90;;;;;;5059857;28;20544;-90
2020/12/23 08:22:39;;;;;;;4.30;3.00;;;12.10;99.90;;;;;;5057588;28;20531;-90
2020/12/23 08:25:09;;;;;;;7.13;3.40;;;12.10;99.90;;;;;;5058065;28;20539;-90
2020/12/23 08:27:38;;;;;;;7.00;2.80;;;12.10;99.90;;;;;;5058751;28;20945;-91
2020/12/23 08:30:07;;;;;;;4.10;2.73;;;12.10;99.90;;;;;;5061747;28;20471;-91
2020/12/23 08:32:37;;;;;;;5.63;3.83;;;12.00;99.90;;;;;;5065148;28;20443;-90
2020/12/23 08:35:05;;;;;;;4.10;2.50;;;12.00;99.90;;;;;;5058066;28;20546;-90
2020/12/23 08:37:35;;;;;;;6.17;3.13;;;12.10;99.90;;;;;;5055640;28;20539;-90
2020/12/23 08:40:03;;;;;;;5.33;3.10;;;12.10;99.90;;;;;;5056758;28;20455;-89
2020/12/23 08:42:30;;;;;;;6.03;3.03;;;12.00;99.90;;;;;;5055909;28;20447;-90
2020/12/23 08:44:57;;;;;;;6.20;3.43;;;12.00;99.90;;;;;;5056413;28;20487;-89
2020/12/23 08:47:27;;;;;;;5.00;2.67;;;12.10;99.90;;;;;;5056487;28;20531;-91
2020/12/23 08:49:57;;;;;;;4.67;2.60;;;12.10;99.90;;;;;;5057105;28;20455;-89
2020/12/23 08:52:26;;;;;;;3.30;2.00;;;12.10;99.90;;;;;;5054962;28;20452;-91
2020/12/23 08:54:52;;;;;;;5.43;2.53;;;12.20;99.90;;;;;;5032968;28;20480;-91
2020/12/23 08:57:25;;;;;;;3.90;2.73;;;12.20;99.90;;;;;;5026673;28;21023;-89
2020/12/23 08:59:53;;;;;;;3.53;2.57;;;12.20;99.90;;;;;;5030112;28;20461;-91
2020/12/23 09:02:20;;;;;;;3.77;2.47;;;12.20;99.90;;;;;;5034700;28;20484;-90
2020/12/23 09:04:46;;;;;;;3.60;2.17;;;12.20;99.90;;;;;;5032467;28;20465;-90
2020/12/23 09:07:21;;;;;;;3.83;2.20;;;12.20;99.90;;;;;;5035759;28;20504;-91
2020/12/23 09:09:49;;;;;;;3.50;2.20;;;12.20;99.90;;;;;;5035821;28;20562;-90
2020/12/23 09:12:22;;;;;;;3.10;2.03;;;12.20;99.90;;;;;;5035695;28;20510;-89
2020/12/23 09:14:49;;;;;;;7.10;2.00;;;12.20;99.90;;;;;;5030799;28;20550;-90
2020/12/23 09:17:24;;;;;;;3.00;1.90;;;12.30;99.90;;;;;;5033920;28;20480;-88
2020/12/23 09:20:00;;;;;;;6.33;2.50;;;12.30;99.90;;;;;;5028792;28;20460;-87
2020/12/23 09:22:32;;;;;;;4.87;2.80;;;12.30;99.90;;;;;;5034180;28;20448;-88
2020/12/23 09:25:16;;;;;;;2.93;2.03;;;12.30;99.90;;;;;;5034991;28;20800;-89
2020/12/23 09:27:44;;;;;;;2.73;1.90;;;12.30;99.90;;;;;;5034398;28;20544;-89
2020/12/23 09:30:10;;;;;;;2.40;1.70;;;12.40;99.90;;;;;;5035207;28;20512;-88
2020/12/23 09:32:51;;;;;;;3.70;2.30;;;12.40;99.90;;;;;;5033518;28;21040;-89
2020/12/23 09:35:20;;;;;;;5.20;2.23;;;12.50;99.90;;;;;;5035037;28;20464;-89
2020/12/23 09:37:47;;;;;;;2.27;1.60;;;12.60;99.90;;;;;;5033517;28;20483;-88
2020/12/23 09:40:16;;;;;;;3.03;1.80;;;12.70;99.90;;;;;;5034223;28;20936;-90
2020/12/23 09:42:42;;;;;;;4.10;1.83;;;12.80;99.90;;;;;;5034354;28;20460;-88
2020/12/23 09:45:11;;;;;;;3.03;1.90;;;12.80;99.90;;;;;;5049292;28;20450;-87
2020/12/23 09:47:44;;;;;;;3.93;1.87;;;13.00;99.90;;;;;;5055918;28;20444;-88
2020/12/23 09:50:11;;;;;;;3.10;1.60;;;13.20;99.90;;;;;;5042098;28;20452;-88
2020/12/23 09:52:38;;;;;;;2.30;1.80;;;13.40;99.90;;;;;;5034369;28;20877;-88
2020/12/23 09:55:07;;;;;;;3.50;1.70;;;13.50;99.90;;;;;;5034390;28;20489;-89
2020/12/23 09:57:34;;;;;;;2.80;1.33;;;13.60;99.90;;;;;;5033885;28;20480;-88
2020/12/23 10:00:01;;;;;;;5.93;1.87;;;13.60;99.90;;;;;;5034065;28;20496;-89
2020/12/23 10:02:27;;;;;;;2.70;1.60;;;13.50;99.90;;;;;;5034138;28;20441;-90
2020/12/23 10:04:54;;;;;;;3.80;1.60;;;13.50;99.90;;;;;;5033646;28;20849;-89
2020/12/23 10:07:21;;;;;;;2.73;1.10;;;13.50;99.90;;;;;;5034114;28;20544;-90
2020/12/23 10:09:48;;;;;;;2.23;1.30;;;13.50;99.90;;;;;;5036767;28;20453;-90
2020/12/23 10:12:15;;;;;;;2.30;1.10;;;13.40;99.90;;;;;;5039284;28;20547;-90
2020/12/23 10:14:42;;;;;;;3.20;1.53;;;13.40;99.90;;;;;;5039166;28;20445;-87
2020/12/23 10:17:12;;;;;;;3.20;1.50;;;13.30;99.90;;;;;;5018966;28;20481;-88
2020/12/23 10:19:39;;;;;;;2.30;1.17;;;13.30;99.90;;;;;;5037841;28;20540;-90
2020/12/23 10:22:05;;;;;;;2.90;1.50;;;13.40;99.90;;;;;;5037331;28;20560;-90
2020/12/23 10:24:32;;;;;;;2.90;1.20;;;13.40;99.90;;;;;;5037855;28;20449;-86
2020/12/23 10:26:58;;;;;;;1.73;1.07;;;13.40;99.90;;;;;;5037384;28;20455;-83
2020/12/23 10:29:24;;;;;;;2.60;1.50;;;13.40;99.90;;;;;;5037124;28;20489;-84
2020/12/23 10:31:51;;;;;;;1.90;1.27;;;13.50;99.90;;;;;;5036197;28;20905;-84
2020/12/23 10:34:18;;;;;;;2.60;1.10;;;13.50;99.90;;;;;;5037176;28;20453;-89
2020/12/23 10:36:47;;;;;;;2.13;1.00;;;13.50;99.90;;;;;;5037131;28;20469;-87
2020/12/23 10:39:14;;;;;;;4.33;1.30;;;13.50;99.90;;;;;;5037289;28;20496;-86
2020/12/23 10:41:40;;;;;;;2.30;1.13;;;13.50;99.90;;;;;;5037223;28;20503;-89
2020/12/23 10:44:06;;;;;;;2.00;1.10;;;13.50;99.90;;;;;;5037754;28;20488;-88
2020/12/23 10:46:33;;;;;;;2.80;1.37;;;13.50;99.90;;;;;;5036321;28;20511;-89
2020/12/23 10:49:00;;;;;;;2.27;1.00;;;13.50;99.90;;;;;;5036961;28;20515;-89
2020/12/23 10:51:27;;;;;;;4.73;1.17;;;13.50;99.90;;;;;;5038611;28;20933;-90
2020/12/23 10:53:54;;;;;;;2.53;1.00;;;13.60;99.90;;;;;;5049091;28;20494;-89
2020/12/23 10:56:20;;;;;;;3.67;1.30;;;13.70;99.90;;;;;;5059432;28;20959;-89
2020/12/23 10:58:48;;;;;;;2.83;1.37;;;13.70;99.90;;;;;;5062263;28;20452;-87
2020/12/23 11:01:18;;;;;;;3.60;1.10;;;13.70;99.90;;;;;;5065559;28;20479;-89
2020/12/23 11:03:45;;;;;;;2.23;0.93;;;13.80;99.90;;;;;;5064043;28;20467;-87
2020/12/23 11:06:15;;;;;;;2.73;1.20;;;13.80;99.90;;;;;;5058363;28;20486;-88
2020/12/23 11:08:42;;;;;;;3.10;1.10;;;14.00;99.90;;;;;;5058281;28;20954;-89
2020/12/23 11:11:13;;;;;;;3.63;1.40;;;14.00;99.90;;;;;;5057281;28;20984;-88
2020/12/23 11:13:40;;;;;;;3.50;1.20;;;14.10;99.90;;;;;;5056938;28;20487;-88
2020/12/23 11:16:12;;;;;;;2.40;1.10;;;14.10;99.90;;;;;;5056920;28;20555;-90
2020/12/23 11:18:38;;;;;;;2.67;1.40;;;14.10;99.90;;;;;;5057055;28;20895;-89
2020/12/23 11:21:05;;;;;;;4.00;1.13;;;14.00;99.90;;;;;;5056452;28;20480;-88
2020/12/23 11:23:32;;;;;;;2.53;1.60;;;14.10;99.90;;;;;;5056556;28;20482;-91
2020/12/23 11:25:59;;;;;;;3.40;1.90;;;14.10;99.90;;;;;;5056797;28;20479;-89
2020/12/23 11:28:28;;;;;;;2.87;1.60;;;14.10;99.90;;;;;;5058455;28;20547;-90
2020/12/23 11:30:54;;;;;;;3.03;1.50;;;14.10;99.90;;;;;;5057908;28;20498;-89
2020/12/23 11:33:21;;;;;;;3.00;1.33;;;14.10;99.90;;;;;;5059896;28;20452;-90
2020/12/23 11:35:48;;;;;;;3.70;1.43;;;14.10;99.90;;;;;;5058060;28;20856;-90
2020/12/23 11:38:14;;;;;;;3.07;1.40;;;14.00;99.90;;;;;;5059217;28;20503;-89
2020/12/23 11:40:41;;;;;;;2.40;1.20;;;13.90;99.90;;;;;;5056307;28;20472;-89
2020/12/23 11:43:08;;;;;;;3.80;1.53;;;13.80;99.90;;;;;;5058251;28;20555;-90
2020/12/23 11:45:34;;;;;;;3.60;1.60;;;13.80;99.90;;;;;;5058177;28;20577;-88
2020/12/23 11:48:01;;;;;;;2.90;1.20;;;13.80;99.90;;;;;;5056312;28;20495;-89
2020/12/23 11:50:31;;;;;;;4.53;1.10;;;13.80;99.90;;;;;;5065106;28;20837;-90
2020/12/23 11:52:57;;;;;;;2.73;1.00;;;13.80;99.90;;;;;;5070294;28;20448;-90
2020/12/23 11:55:23;;;;;;;2.47;1.40;;;13.80;99.90;;;;;;5071555;28;20526;-91
2020/12/23 11:57:51;;;;;;;2.20;1.00;;;13.80;99.90;;;;;;5067968;28;20475;-89
2020/12/23 12:00:18;;;;;;;2.60;1.10;;;13.90;99.90;;;;;;5068718;28;20982;-89
2020/12/23 12:02:44;;;;;;;2.60;1.20;;;13.70;99.90;;;;;;5064661;28;20529;-89
2020/12/23 12:05:11;;;;;;;2.87;1.30;;;13.70;99.90;;;;;;5056011;28;20486;-88
2020/12/23 12:07:38;;;;;;;2.40;1.40;;;13.80;99.90;;;;;;5063926;28;20794;-90
2020/12/23 12:10:05;;;;;;;2.63;1.03;;;13.70;99.90;;;;;;5069995;28;20895;-89
2020/12/23 12:12:32;;;;;;;3.77;1.30;;;13.80;99.90;;;;;;5061112;28;20452;-92
2020/12/23 12:14:59;;;;;;;1.63;0.83;;;13.80;99.90;;;;;;5062338;28;20966;-90
2020/12/23 12:17:28;;;;;;;3.87;1.07;;;13.70;99.90;;;;;;5065992;28;20811;-90
2020/12/23 12:19:56;;;;;;;1.90;0.90;;;13.70;99.90;;;;;;5058309;28;20489;-89
2020/12/23 12:22:23;;;;;;;2.63;0.93;;;13.60;99.90;;;;;;5064594;28;20483;-90
2020/12/23 12:24:49;;;;;;;2.50;0.77;;;13.60;99.90;;;;;;5065739;28;20458;-89
2020/12/23 12:27:16;;;;;;;2.00;0.90;;;13.50;99.90;;;;;;5061571;28;20440;-89
2020/12/23 12:29:42;;;;;;;2.10;0.83;;;13.30;99.90;;;;;;5057345;28;20463;-89
2020/12/23 12:32:09;;;;;;;1.90;1.03;;;13.20;99.90;;;;;;5064440;28;20444;-89
2020/12/23 12:34:39;;;;;;;2.20;1.00;;;13.10;99.90;;;;;;5056419;28;20852;-89
2020/12/23 12:37:05;;;;;;;1.90;1.10;;;13.10;99.90;;;;;;5062352;28;20482;-89
2020/12/23 12:39:34;;;;;;;3.77;1.27;;;12.90;99.90;;;;;;5065667;28;20457;-91
2020/12/23 12:42:05;;;;;;;2.07;0.93;;;12.80;99.90;;;;;;5073343;28;20524;-93